ACA122 CYVR-CYYZ
Flight info
| Callsign | ACA122 |
|---|---|
| Flight time | 4h 1m |
| Altitude | 35000 |
| Route | ALNOD DCT IKNIX DCT BEVEL DCT 4930N10000W DCT AGLIN/N0463F370 DCT OTNIK BOXUM7 |
| Aircraft | B38M/M-SDE1FGHILORVWXY/HB1 |
Departure
| Time | 2026-05-05 20:25 |
|---|---|
| Airport | Vancouver International Airport (CYVR) |
Arrival
| Time | 2026-05-06 00:27 |
|---|---|
| Airport | Toronto Pearson International Airport (CYYZ) |
| Time | Latitude | Longitude | Altitude | Speed | Heading |
|---|---|---|---|---|---|
| 2026-05-05 20:01 | 49.19651 | -123.18503 | 25 ft | 0 kts | 189° |
| 2026-05-05 20:11 | 49.19656 | -123.18501 | 31 ft | 3 kts | 189° |
| 2026-05-05 20:12 | 49.19681 | -123.18491 | 26 ft | 4 kts | 210° |
| 2026-05-05 20:12 | 49.19697 | -123.18465 | 28 ft | 4 kts | 255° |
| 2026-05-05 20:12 | 49.19698 | -123.18443 | 29 ft | 1 kts | 280° |
| 2026-05-05 20:19 | 49.19698 | -123.18444 | 29 ft | 1 kts | 280° |
| 2026-05-05 20:19 | 49.19701 | -123.18462 | 29 ft | 3 kts | 280° |
| 2026-05-05 20:19 | 49.19706 | -123.18503 | 28 ft | 5 kts | 280° |
| 2026-05-05 20:19 | 49.19713 | -123.18565 | 25 ft | 7 kts | 280° |
| 2026-05-05 20:20 | 49.19710 | -123.18646 | 27 ft | 8 kts | 237° |
| 2026-05-05 20:20 | 49.19653 | -123.18676 | 25 ft | 10 kts | 189° |
| 2026-05-05 20:20 | 49.19580 | -123.18695 | 26 ft | 12 kts | 190° |
| 2026-05-05 20:20 | 49.19495 | -123.18719 | 25 ft | 13 kts | 190° |
| 2026-05-05 20:21 | 49.19400 | -123.18754 | 28 ft | 15 kts | 214° |
| 2026-05-05 20:21 | 49.19370 | -123.18904 | 25 ft | 16 kts | 259° |
| 2026-05-05 20:21 | 49.19347 | -123.19079 | 25 ft | 18 kts | 260° |
| 2026-05-05 20:21 | 49.19326 | -123.19275 | 24 ft | 20 kts | 261° |
| 2026-05-05 20:22 | 49.19302 | -123.19481 | 25 ft | 19 kts | 259° |
| 2026-05-05 20:22 | 49.19284 | -123.19616 | 25 ft | 20 kts | 259° |
| 2026-05-05 20:22 | 49.19248 | -123.19908 | 25 ft | 22 kts | 259° |
| 2026-05-05 20:22 | 49.19217 | -123.20146 | 25 ft | 23 kts | 259° |
| 2026-05-05 20:23 | 49.19197 | -123.20311 | 30 ft | 24 kts | 260° |
| 2026-05-05 20:23 | 49.19178 | -123.20508 | 26 ft | 17 kts | 272° |
| 2026-05-05 20:23 | 49.19198 | -123.20689 | 29 ft | 15 kts | 280° |
| 2026-05-05 20:23 | 49.19175 | -123.20820 | 30 ft | 10 kts | 214° |
| 2026-05-05 20:24 | 49.19130 | -123.20836 | 26 ft | 11 kts | 188° |
| 2026-05-05 20:24 | 49.19052 | -123.20853 | 26 ft | 11 kts | 188° |
| 2026-05-05 20:24 | 49.19013 | -123.20833 | 27 ft | 5 kts | 116° |
| 2026-05-05 20:24 | 49.19006 | -123.20778 | 26 ft | 6 kts | 99° |
| 2026-05-05 20:25 | 49.18972 | -123.20483 | 28 ft | 66 kts | 100° |
| 2026-05-05 20:25 | 49.18849 | -123.19383 | 27 ft | 141 kts | 100° |
| 2026-05-05 20:25 | 49.18647 | -123.17607 | 153 ft | 191 kts | 101° |
| 2026-05-05 20:25 | 49.18410 | -123.15516 | 830 ft | 199 kts | 101° |
| 2026-05-05 20:26 | 49.18178 | -123.13423 | 1365 ft | 201 kts | 102° |
| 2026-05-05 20:26 | 49.17931 | -123.11274 | 1846 ft | 211 kts | 102° |
| 2026-05-05 20:26 | 49.17673 | -123.09074 | 2649 ft | 212 kts | 101° |
| 2026-05-05 20:26 | 49.17447 | -123.06844 | 3445 ft | 216 kts | 98° |
| 2026-05-05 20:27 | 49.17258 | -123.04450 | 3856 ft | 238 kts | 97° |
| 2026-05-05 20:27 | 49.17052 | -123.01843 | 4364 ft | 252 kts | 97° |
| 2026-05-05 20:27 | 49.16837 | -122.99165 | 5268 ft | 253 kts | 97° |
| 2026-05-05 20:27 | 49.16617 | -122.96457 | 5966 ft | 268 kts | 97° |
| 2026-05-05 20:28 | 49.16378 | -122.93542 | 6544 ft | 285 kts | 97° |
| 2026-05-05 20:28 | 49.16131 | -122.90534 | 7431 ft | 285 kts | 96° |
| 2026-05-05 20:28 | 49.15879 | -122.87484 | 8250 ft | 291 kts | 96° |
| 2026-05-05 20:28 | 49.15622 | -122.84384 | 9115 ft | 295 kts | 96° |
| 2026-05-05 20:29 | 49.15362 | -122.81263 | 10003 ft | 297 kts | 95° |
| 2026-05-05 20:29 | 49.15096 | -122.78083 | 10600 ft | 309 kts | 95° |
| 2026-05-05 20:29 | 49.14819 | -122.74770 | 10936 ft | 328 kts | 95° |
| 2026-05-05 20:29 | 49.14519 | -122.71200 | 11245 ft | 348 kts | 95° |
| 2026-05-05 20:30 | 49.14200 | -122.67433 | 11578 ft | 365 kts | 95° |
| 2026-05-05 20:30 | 49.13868 | -122.63522 | 12077 ft | 375 kts | 95° |
| 2026-05-05 20:30 | 49.13531 | -122.59564 | 12868 ft | 376 kts | 95° |
| 2026-05-05 20:30 | 49.13190 | -122.55571 | 13538 ft | 381 kts | 95° |
| 2026-05-05 20:31 | 49.12844 | -122.51536 | 14207 ft | 384 kts | 95° |
| 2026-05-05 20:31 | 49.12497 | -122.47518 | 14821 ft | 388 kts | 95° |
| 2026-05-05 20:31 | 49.12142 | -122.43415 | 15454 ft | 392 kts | 94° |
| 2026-05-05 20:31 | 49.11781 | -122.39268 | 16057 ft | 396 kts | 94° |
| 2026-05-05 20:32 | 49.11416 | -122.35085 | 16686 ft | 399 kts | 94° |
| 2026-05-05 20:32 | 49.11045 | -122.30855 | 17290 ft | 403 kts | 94° |
| 2026-05-05 20:32 | 49.10670 | -122.26594 | 17857 ft | 407 kts | 94° |
| 2026-05-05 20:32 | 49.10289 | -122.22294 | 18432 ft | 410 kts | 94° |
| 2026-05-05 20:33 | 49.09908 | -122.18009 | 18929 ft | 413 kts | 93° |
| 2026-05-05 20:33 | 49.09517 | -122.13627 | 19408 ft | 416 kts | 93° |
| 2026-05-05 20:33 | 49.09125 | -122.09232 | 19923 ft | 418 kts | 93° |
| 2026-05-05 20:33 | 49.08725 | -122.04805 | 20394 ft | 422 kts | 93° |
| 2026-05-05 20:34 | 49.08325 | -122.00385 | 20891 ft | 426 kts | 93° |
| 2026-05-05 20:34 | 49.07917 | -121.95889 | 21399 ft | 430 kts | 93° |
| 2026-05-05 20:34 | 49.07502 | -121.91347 | 21873 ft | 433 kts | 93° |
| 2026-05-05 20:34 | 49.07083 | -121.86773 | 22377 ft | 436 kts | 93° |
| 2026-05-05 20:35 | 49.06665 | -121.82224 | 22858 ft | 440 kts | 93° |
| 2026-05-05 20:35 | 49.06235 | -121.77582 | 23338 ft | 443 kts | 93° |
| 2026-05-05 20:35 | 49.05801 | -121.72909 | 23798 ft | 447 kts | 93° |
| 2026-05-05 20:35 | 49.05365 | -121.68197 | 24188 ft | 449 kts | 91° |
| 2026-05-05 20:36 | 49.05384 | -121.63494 | 24593 ft | 441 kts | 77° |
| 2026-05-05 20:36 | 49.05783 | -121.58829 | 24948 ft | 446 kts | 78° |
| 2026-05-05 20:36 | 49.06187 | -121.54109 | 25294 ft | 449 kts | 77° |
| 2026-05-05 20:36 | 49.06603 | -121.49424 | 25691 ft | 451 kts | 77° |
| 2026-05-05 20:37 | 49.07033 | -121.44659 | 26042 ft | 454 kts | 77° |
| 2026-05-05 20:37 | 49.07466 | -121.39881 | 26408 ft | 456 kts | 77° |
| 2026-05-05 20:37 | 49.07903 | -121.35052 | 26741 ft | 459 kts | 77° |
| 2026-05-05 20:37 | 49.08338 | -121.30200 | 27028 ft | 463 kts | 77° |
| 2026-05-05 20:38 | 49.08770 | -121.25377 | 27437 ft | 464 kts | 77° |
| 2026-05-05 20:38 | 49.09207 | -121.20483 | 27732 ft | 467 kts | 77° |
| 2026-05-05 20:38 | 49.09645 | -121.15546 | 28102 ft | 469 kts | 77° |
| 2026-05-05 20:38 | 49.10082 | -121.10583 | 28417 ft | 472 kts | 77° |
| 2026-05-05 20:39 | 49.10515 | -121.05657 | 28708 ft | 475 kts | 77° |
| 2026-05-05 20:39 | 49.10953 | -121.00650 | 29067 ft | 476 kts | 77° |
| 2026-05-05 20:39 | 49.11387 | -120.95639 | 29406 ft | 477 kts | 77° |
| 2026-05-05 20:39 | 49.11821 | -120.90625 | 29914 ft | 476 kts | 77° |
| 2026-05-05 20:40 | 49.12252 | -120.85611 | 30293 ft | 475 kts | 77° |
| 2026-05-05 20:40 | 49.12680 | -120.80602 | 30637 ft | 474 kts | 77° |
| 2026-05-05 20:40 | 49.13106 | -120.75606 | 31001 ft | 474 kts | 77° |
| 2026-05-05 20:40 | 49.13523 | -120.70676 | 31314 ft | 474 kts | 77° |
| 2026-05-05 20:41 | 49.13944 | -120.65679 | 31700 ft | 473 kts | 77° |
| 2026-05-05 20:41 | 49.14362 | -120.60694 | 32082 ft | 472 kts | 77° |
| 2026-05-05 20:41 | 49.14777 | -120.55725 | 32475 ft | 471 kts | 77° |
| 2026-05-05 20:41 | 49.15187 | -120.50768 | 32875 ft | 469 kts | 77° |
| 2026-05-05 20:42 | 49.15595 | -120.45814 | 33229 ft | 469 kts | 77° |
| 2026-05-05 20:42 | 49.16000 | -120.40876 | 33585 ft | 468 kts | 77° |
| 2026-05-05 20:42 | 49.16403 | -120.35939 | 33934 ft | 467 kts | 77° |
| 2026-05-05 20:42 | 49.16802 | -120.31015 | 34204 ft | 467 kts | 77° |
| 2026-05-05 20:43 | 49.17196 | -120.26151 | 34466 ft | 466 kts | 76° |
| 2026-05-05 20:43 | 49.17590 | -120.21225 | 34734 ft | 465 kts | 76° |
| 2026-05-05 20:43 | 49.17983 | -120.16308 | 34950 ft | 465 kts | 76° |
| 2026-05-05 20:44 | 49.18756 | -120.06547 | 34991 ft | 462 kts | 76° |
| 2026-05-05 20:44 | 49.19519 | -119.96802 | 34958 ft | 461 kts | 76° |
| 2026-05-05 20:45 | 49.20644 | -119.82232 | 34929 ft | 461 kts | 76° |
| 2026-05-05 20:45 | 49.21386 | -119.72497 | 34950 ft | 461 kts | 76° |
| 2026-05-05 20:46 | 49.22119 | -119.62749 | 34985 ft | 462 kts | 76° |
| 2026-05-05 20:46 | 49.22848 | -119.52957 | 34930 ft | 461 kts | 76° |
| 2026-05-05 20:47 | 49.23564 | -119.43225 | 34937 ft | 462 kts | 76° |
| 2026-05-05 20:47 | 49.24278 | -119.33444 | 34934 ft | 462 kts | 76° |
| 2026-05-05 20:48 | 49.24974 | -119.23704 | 34939 ft | 463 kts | 76° |
| 2026-05-05 20:48 | 49.25623 | -119.13884 | 34967 ft | 462 kts | 76° |
| 2026-05-05 20:49 | 49.26268 | -119.04085 | 34921 ft | 460 kts | 76° |
| 2026-05-05 20:49 | 49.26902 | -118.94355 | 34948 ft | 462 kts | 76° |
| 2026-05-05 20:50 | 49.27531 | -118.84569 | 34944 ft | 460 kts | 76° |
| 2026-05-05 20:50 | 49.28147 | -118.74849 | 34939 ft | 460 kts | 76° |
| 2026-05-05 20:51 | 49.28759 | -118.65086 | 34971 ft | 459 kts | 76° |
| 2026-05-05 20:51 | 49.29356 | -118.55409 | 34933 ft | 458 kts | 76° |
| 2026-05-05 20:52 | 49.29950 | -118.45650 | 34948 ft | 459 kts | 76° |
| 2026-05-05 20:52 | 49.30534 | -118.35914 | 34945 ft | 458 kts | 76° |
| 2026-05-05 20:53 | 49.31108 | -118.26215 | 34998 ft | 460 kts | 76° |
| 2026-05-05 20:53 | 49.31679 | -118.16440 | 34958 ft | 457 kts | 76° |
| 2026-05-05 20:54 | 49.32231 | -118.06821 | 34964 ft | 457 kts | 76° |
| 2026-05-05 20:54 | 49.32782 | -117.97090 | 34970 ft | 457 kts | 76° |
| 2026-05-05 20:55 | 49.33323 | -117.87387 | 34974 ft | 457 kts | 76° |
| 2026-05-05 20:55 | 49.33854 | -117.77708 | 34958 ft | 457 kts | 76° |
| 2026-05-05 20:56 | 49.34381 | -117.67986 | 34980 ft | 456 kts | 75° |
| 2026-05-05 20:56 | 49.34893 | -117.58339 | 34935 ft | 449 kts | 75° |
| 2026-05-05 20:57 | 49.35141 | -117.53618 | 35050 ft | 450 kts | 75° |
| 2026-05-05 20:57 | 49.35392 | -117.48807 | 35077 ft | 454 kts | 76° |
| 2026-05-05 20:57 | 49.35891 | -117.39129 | 35056 ft | 455 kts | 76° |
| 2026-05-05 20:58 | 49.36383 | -117.29424 | 35086 ft | 456 kts | 76° |
| 2026-05-05 20:58 | 49.36866 | -117.19747 | 35081 ft | 454 kts | 76° |
| 2026-05-05 20:59 | 49.37341 | -117.10052 | 35081 ft | 454 kts | 76° |
| 2026-05-05 20:59 | 49.37805 | -117.00411 | 35110 ft | 456 kts | 76° |
| 2026-05-05 21:00 | 49.38265 | -116.90690 | 35081 ft | 455 kts | 76° |
| 2026-05-05 21:00 | 49.38717 | -116.80969 | 35115 ft | 456 kts | 76° |
| 2026-05-05 21:01 | 49.39157 | -116.71318 | 35125 ft | 454 kts | 76° |
| 2026-05-05 21:01 | 49.39593 | -116.61601 | 35145 ft | 456 kts | 76° |
| 2026-05-05 21:02 | 49.40018 | -116.51927 | 35127 ft | 455 kts | 76° |
| 2026-05-05 21:02 | 49.40435 | -116.42243 | 35138 ft | 454 kts | 76° |
| 2026-05-05 21:03 | 49.40843 | -116.32569 | 35188 ft | 453 kts | 76° |
| 2026-05-05 21:03 | 49.41243 | -116.22933 | 35138 ft | 453 kts | 75° |
| 2026-05-05 21:04 | 49.41636 | -116.13268 | 35159 ft | 453 kts | 76° |
| 2026-05-05 21:04 | 49.42018 | -116.03618 | 35152 ft | 453 kts | 76° |
| 2026-05-05 21:05 | 49.42395 | -115.93942 | 35177 ft | 454 kts | 76° |
| 2026-05-05 21:05 | 49.42761 | -115.84295 | 35194 ft | 454 kts | 76° |
| 2026-05-05 21:06 | 49.43123 | -115.74598 | 35170 ft | 453 kts | 75° |
| 2026-05-05 21:06 | 49.43473 | -115.64971 | 35182 ft | 453 kts | 75° |
| 2026-05-05 21:07 | 49.43817 | -115.55282 | 35183 ft | 453 kts | 76° |
| 2026-05-05 21:07 | 49.44152 | -115.45652 | 35170 ft | 453 kts | 75° |
| 2026-05-05 21:08 | 49.44479 | -115.35983 | 35252 ft | 453 kts | 75° |
| 2026-05-05 21:08 | 49.44800 | -115.26289 | 35181 ft | 453 kts | 75° |
| 2026-05-05 21:09 | 49.45110 | -115.16643 | 35235 ft | 453 kts | 76° |
| 2026-05-05 21:09 | 49.45413 | -115.06978 | 35238 ft | 452 kts | 76° |
| 2026-05-05 21:10 | 49.45659 | -114.98917 | 35226 ft | 453 kts | 76° |
| 2026-05-05 21:10 | 49.45948 | -114.89220 | 35240 ft | 453 kts | 76° |
| 2026-05-05 21:11 | 49.46226 | -114.79634 | 35307 ft | 450 kts | 75° |
| 2026-05-05 21:11 | 49.46498 | -114.69995 | 35325 ft | 450 kts | 75° |
| 2026-05-05 21:12 | 49.46760 | -114.60410 | 35335 ft | 451 kts | 75° |
| 2026-05-05 21:12 | 49.47004 | -114.51148 | 35307 ft | 448 kts | 75° |
| 2026-05-05 21:13 | 49.47252 | -114.41519 | 35345 ft | 451 kts | 75° |
| 2026-05-05 21:13 | 49.47490 | -114.31946 | 35330 ft | 449 kts | 75° |
| 2026-05-05 21:14 | 49.47722 | -114.22311 | 35317 ft | 450 kts | 75° |
| 2026-05-05 21:14 | 49.47943 | -114.12756 | 35308 ft | 450 kts | 75° |
| 2026-05-05 21:15 | 49.48159 | -114.03122 | 35304 ft | 450 kts | 75° |
| 2026-05-05 21:15 | 49.48367 | -113.93473 | 35301 ft | 451 kts | 75° |
| 2026-05-05 21:16 | 49.48566 | -113.83888 | 35299 ft | 450 kts | 75° |
| 2026-05-05 21:16 | 49.48757 | -113.74259 | 35326 ft | 451 kts | 75° |
| 2026-05-05 21:17 | 49.48941 | -113.64588 | 35326 ft | 451 kts | 75° |
| 2026-05-05 21:17 | 49.49115 | -113.54991 | 35337 ft | 451 kts | 75° |
| 2026-05-05 21:18 | 49.49283 | -113.45328 | 35339 ft | 451 kts | 75° |
| 2026-05-05 21:18 | 49.49443 | -113.35697 | 35340 ft | 448 kts | 75° |
| 2026-05-05 21:19 | 49.49593 | -113.26153 | 35332 ft | 449 kts | 75° |
| 2026-05-05 21:19 | 49.49736 | -113.16550 | 35312 ft | 449 kts | 75° |
| 2026-05-05 21:20 | 49.49871 | -113.06937 | 35301 ft | 449 kts | 76° |
| 2026-05-05 21:20 | 49.49997 | -112.97382 | 35299 ft | 449 kts | 76° |
| 2026-05-05 21:21 | 49.50117 | -112.87777 | 35308 ft | 448 kts | 76° |
| 2026-05-05 21:21 | 49.50228 | -112.78169 | 35293 ft | 448 kts | 76° |
| 2026-05-05 21:22 | 49.50331 | -112.68560 | 35291 ft | 449 kts | 76° |
| 2026-05-05 21:22 | 49.50426 | -112.59005 | 35300 ft | 449 kts | 76° |
| 2026-05-05 21:23 | 49.50514 | -112.49382 | 35330 ft | 449 kts | 76° |
| 2026-05-05 21:23 | 49.50593 | -112.39821 | 35323 ft | 449 kts | 76° |
| 2026-05-05 21:24 | 49.50665 | -112.30186 | 35323 ft | 449 kts | 76° |
| 2026-05-05 21:24 | 49.50728 | -112.20565 | 35325 ft | 449 kts | 76° |
| 2026-05-05 21:25 | 49.50784 | -112.10935 | 35327 ft | 449 kts | 76° |
| 2026-05-05 21:25 | 49.50832 | -112.01361 | 35327 ft | 450 kts | 76° |
| 2026-05-05 21:26 | 49.50871 | -111.91695 | 35332 ft | 450 kts | 77° |
| 2026-05-05 21:26 | 49.50903 | -111.82099 | 35325 ft | 451 kts | 77° |
| 2026-05-05 21:27 | 49.50927 | -111.72437 | 35324 ft | 451 kts | 77° |
| 2026-05-05 21:27 | 49.50943 | -111.62766 | 35330 ft | 452 kts | 77° |
| 2026-05-05 21:28 | 49.50951 | -111.53159 | 35327 ft | 452 kts | 77° |
| 2026-05-05 21:28 | 49.50950 | -111.43466 | 35336 ft | 452 kts | 78° |
| 2026-05-05 21:29 | 49.50942 | -111.33768 | 35331 ft | 453 kts | 78° |
| 2026-05-05 21:29 | 49.50926 | -111.24131 | 35346 ft | 453 kts | 78° |
| 2026-05-05 21:30 | 49.50901 | -111.14414 | 35334 ft | 453 kts | 78° |
| 2026-05-05 21:30 | 49.50868 | -111.04710 | 35400 ft | 453 kts | 78° |
| 2026-05-05 21:31 | 49.50828 | -110.95068 | 35332 ft | 453 kts | 78° |
| 2026-05-05 21:31 | 49.50781 | -110.85337 | 35328 ft | 453 kts | 78° |
| 2026-05-05 21:32 | 49.50728 | -110.75693 | 35329 ft | 453 kts | 78° |
| 2026-05-05 21:32 | 49.50667 | -110.65988 | 35325 ft | 453 kts | 78° |
| 2026-05-05 21:33 | 49.50598 | -110.56266 | 35378 ft | 453 kts | 79° |
| 2026-05-05 21:33 | 49.50521 | -110.46591 | 35323 ft | 454 kts | 79° |
| 2026-05-05 21:34 | 49.50436 | -110.36833 | 35312 ft | 455 kts | 79° |
| 2026-05-05 21:34 | 49.50343 | -110.27079 | 35304 ft | 456 kts | 80° |
| 2026-05-05 21:35 | 49.50244 | -110.17378 | 35306 ft | 456 kts | 80° |
| 2026-05-05 21:35 | 49.50135 | -110.07597 | 35348 ft | 456 kts | 81° |
| 2026-05-05 21:36 | 49.50192 | -109.97840 | 35310 ft | 450 kts | 75° |
| 2026-05-05 21:36 | 49.50642 | -109.88241 | 35293 ft | 452 kts | 76° |
| 2026-05-05 21:37 | 49.51048 | -109.78581 | 35296 ft | 452 kts | 76° |
| 2026-05-05 21:37 | 49.51440 | -109.68965 | 35293 ft | 452 kts | 76° |
| 2026-05-05 21:38 | 49.51828 | -109.59276 | 35325 ft | 453 kts | 78° |
| 2026-05-05 21:38 | 49.52205 | -109.49611 | 35294 ft | 456 kts | 78° |
| 2026-05-05 21:39 | 49.52578 | -109.39859 | 35295 ft | 456 kts | 78° |
| 2026-05-05 21:39 | 49.52943 | -109.30098 | 35309 ft | 456 kts | 78° |
| 2026-05-05 21:40 | 49.53298 | -109.20390 | 35304 ft | 456 kts | 78° |
| 2026-05-05 21:40 | 49.53647 | -109.10640 | 35326 ft | 458 kts | 79° |
| 2026-05-05 21:41 | 49.53989 | -109.00818 | 35307 ft | 459 kts | 79° |
| 2026-05-05 21:41 | 49.54321 | -108.91066 | 35309 ft | 459 kts | 79° |
| 2026-05-05 21:42 | 49.54647 | -108.81226 | 35301 ft | 459 kts | 79° |
| 2026-05-05 21:42 | 49.54963 | -108.71459 | 35300 ft | 459 kts | 79° |
| 2026-05-05 21:43 | 49.55273 | -108.61611 | 35308 ft | 461 kts | 81° |
| 2026-05-05 21:43 | 49.55576 | -108.51719 | 35302 ft | 461 kts | 81° |
| 2026-05-05 21:44 | 49.55869 | -108.41881 | 35293 ft | 461 kts | 81° |
| 2026-05-05 21:44 | 49.56155 | -108.31990 | 35293 ft | 461 kts | 81° |
| 2026-05-05 21:45 | 49.56431 | -108.22157 | 35329 ft | 461 kts | 81° |
| 2026-05-05 21:45 | 49.56701 | -108.12252 | 35297 ft | 462 kts | 82° |
| 2026-05-05 21:46 | 49.56962 | -108.02340 | 35297 ft | 463 kts | 82° |
| 2026-05-05 21:46 | 49.57213 | -107.92485 | 35297 ft | 463 kts | 82° |
| 2026-05-05 21:47 | 49.57458 | -107.82560 | 35292 ft | 463 kts | 82° |
| 2026-05-05 21:47 | 49.57693 | -107.72694 | 35292 ft | 463 kts | 82° |
| 2026-05-05 21:48 | 49.57920 | -107.62768 | 35288 ft | 463 kts | 82° |
| 2026-05-05 21:48 | 49.58138 | -107.52894 | 35286 ft | 463 kts | 82° |
| 2026-05-05 21:49 | 49.58349 | -107.42948 | 35280 ft | 463 kts | 82° |
| 2026-05-05 21:49 | 49.58551 | -107.33065 | 35283 ft | 463 kts | 82° |
| 2026-05-05 21:50 | 49.58745 | -107.23113 | 35280 ft | 463 kts | 83° |
| 2026-05-05 21:50 | 49.58929 | -107.13236 | 35278 ft | 463 kts | 83° |
| 2026-05-05 21:51 | 49.59106 | -107.03293 | 35268 ft | 463 kts | 83° |
| 2026-05-05 21:51 | 49.59274 | -106.93377 | 35264 ft | 463 kts | 83° |
| 2026-05-05 21:52 | 49.59510 | -106.78528 | 35275 ft | 463 kts | 83° |
| 2026-05-05 21:53 | 49.59658 | -106.68570 | 35261 ft | 463 kts | 84° |
| 2026-05-05 21:53 | 49.59796 | -106.58631 | 35259 ft | 464 kts | 84° |
| 2026-05-05 21:54 | 49.59926 | -106.48726 | 35254 ft | 464 kts | 84° |
| 2026-05-05 21:54 | 49.60048 | -106.38765 | 35257 ft | 464 kts | 84° |
| 2026-05-05 21:55 | 49.60160 | -106.28879 | 35260 ft | 464 kts | 84° |
| 2026-05-05 21:55 | 49.60265 | -106.18905 | 35245 ft | 464 kts | 84° |
| 2026-05-05 21:56 | 49.60361 | -106.09000 | 35249 ft | 464 kts | 84° |
| 2026-05-05 21:56 | 49.60449 | -105.99026 | 35248 ft | 464 kts | 84° |
| 2026-05-05 21:57 | 49.60528 | -105.89113 | 35268 ft | 464 kts | 85° |
| 2026-05-05 21:57 | 49.60599 | -105.79152 | 35247 ft | 463 kts | 85° |
| 2026-05-05 21:58 | 49.60661 | -105.69196 | 35246 ft | 464 kts | 85° |
| 2026-05-05 21:58 | 49.60714 | -105.59307 | 35251 ft | 464 kts | 85° |
| 2026-05-05 21:59 | 49.60760 | -105.49348 | 35246 ft | 464 kts | 85° |
| 2026-05-05 21:59 | 49.60790 | -105.41067 | 35266 ft | 465 kts | 85° |
| 2026-05-05 22:00 | 49.60820 | -105.31088 | 35248 ft | 465 kts | 86° |
| 2026-05-05 22:00 | 49.60841 | -105.21169 | 35241 ft | 465 kts | 86° |
| 2026-05-05 22:01 | 49.60854 | -105.11170 | 35241 ft | 465 kts | 86° |
| 2026-05-05 22:01 | 49.60858 | -105.01257 | 35230 ft | 465 kts | 86° |
| 2026-05-05 22:02 | 49.60853 | -104.91249 | 35238 ft | 465 kts | 86° |
| 2026-05-05 22:02 | 49.60839 | -104.81316 | 35230 ft | 465 kts | 86° |
| 2026-05-05 22:03 | 49.60818 | -104.71302 | 35235 ft | 465 kts | 86° |
| 2026-05-05 22:03 | 49.60787 | -104.61354 | 35225 ft | 465 kts | 86° |
| 2026-05-05 22:04 | 49.60748 | -104.51339 | 35246 ft | 465 kts | 86° |
| 2026-05-05 22:04 | 49.60701 | -104.41407 | 35211 ft | 465 kts | 86° |
| 2026-05-05 22:05 | 49.60645 | -104.31418 | 35209 ft | 465 kts | 87° |
| 2026-05-05 22:05 | 49.60580 | -104.21414 | 35215 ft | 465 kts | 87° |
| 2026-05-05 22:06 | 49.60507 | -104.11437 | 35204 ft | 465 kts | 87° |
| 2026-05-05 22:06 | 49.60425 | -104.01497 | 35219 ft | 466 kts | 87° |
| 2026-05-05 22:07 | 49.60334 | -103.91507 | 35204 ft | 465 kts | 87° |
| 2026-05-05 22:07 | 49.60236 | -103.81585 | 35203 ft | 465 kts | 87° |
| 2026-05-05 22:08 | 49.60128 | -103.71599 | 35196 ft | 466 kts | 88° |
| 2026-05-05 22:08 | 49.60011 | -103.61578 | 35202 ft | 468 kts | 88° |
| 2026-05-05 22:09 | 49.59886 | -103.51548 | 35202 ft | 468 kts | 88° |
| 2026-05-05 22:09 | 49.59753 | -103.41544 | 35199 ft | 468 kts | 88° |
| 2026-05-05 22:10 | 49.59609 | -103.31492 | 35196 ft | 468 kts | 88° |
| 2026-05-05 22:10 | 49.59459 | -103.21495 | 35193 ft | 468 kts | 88° |
| 2026-05-05 22:11 | 49.59298 | -103.11445 | 35196 ft | 468 kts | 88° |
| 2026-05-05 22:11 | 49.59129 | -103.01376 | 35196 ft | 468 kts | 88° |
| 2026-05-05 22:12 | 49.58952 | -102.91384 | 35196 ft | 468 kts | 88° |
| 2026-05-05 22:12 | 49.58765 | -102.81324 | 35195 ft | 468 kts | 88° |
| 2026-05-05 22:13 | 49.58571 | -102.71344 | 35196 ft | 469 kts | 89° |
| 2026-05-05 22:13 | 49.58367 | -102.61289 | 35198 ft | 469 kts | 89° |
| 2026-05-05 22:14 | 49.58154 | -102.51212 | 35194 ft | 470 kts | 89° |
| 2026-05-05 22:14 | 49.57933 | -102.41190 | 35185 ft | 470 kts | 89° |
| 2026-05-05 22:15 | 49.57703 | -102.31125 | 35184 ft | 470 kts | 89° |
| 2026-05-05 22:15 | 49.57464 | -102.21079 | 35187 ft | 470 kts | 89° |
| 2026-05-05 22:16 | 49.57216 | -102.10987 | 35193 ft | 471 kts | 89° |
| 2026-05-05 22:16 | 49.56959 | -102.00930 | 35194 ft | 471 kts | 89° |
| 2026-05-05 22:17 | 49.56691 | -101.90777 | 35196 ft | 474 kts | 90° |
| 2026-05-05 22:17 | 49.56416 | -101.80684 | 35194 ft | 474 kts | 90° |
| 2026-05-05 22:18 | 49.56130 | -101.70509 | 35202 ft | 475 kts | 90° |
| 2026-05-05 22:18 | 49.55835 | -101.60313 | 35196 ft | 476 kts | 90° |
| 2026-05-05 22:19 | 49.55530 | -101.50125 | 35191 ft | 476 kts | 90° |
| 2026-05-05 22:19 | 49.55217 | -101.39946 | 35192 ft | 476 kts | 90° |
| 2026-05-05 22:20 | 49.54896 | -101.29829 | 35195 ft | 476 kts | 90° |
| 2026-05-05 22:20 | 49.54564 | -101.19623 | 35198 ft | 476 kts | 91° |
| 2026-05-05 22:21 | 49.54223 | -101.09420 | 35195 ft | 476 kts | 91° |
| 2026-05-05 22:21 | 49.53875 | -100.99263 | 35191 ft | 476 kts | 91° |
| 2026-05-05 22:22 | 49.53521 | -100.89107 | 35192 ft | 476 kts | 91° |
| 2026-05-05 22:22 | 49.53157 | -100.78901 | 35211 ft | 477 kts | 91° |
| 2026-05-05 22:23 | 49.52784 | -100.68694 | 35193 ft | 476 kts | 91° |
| 2026-05-05 22:23 | 49.52406 | -100.58574 | 35199 ft | 477 kts | 91° |
| 2026-05-05 22:24 | 49.52016 | -100.48373 | 35192 ft | 477 kts | 91° |
| 2026-05-05 22:24 | 49.51617 | -100.38156 | 35194 ft | 477 kts | 91° |
| 2026-05-05 22:25 | 49.51212 | -100.28010 | 35190 ft | 477 kts | 91° |
| 2026-05-05 22:25 | 49.50796 | -100.17788 | 35198 ft | 480 kts | 92° |
| 2026-05-05 22:26 | 49.50372 | -100.07586 | 35187 ft | 480 kts | 92° |
| 2026-05-05 22:26 | 49.49799 | -99.97346 | 35192 ft | 480 kts | 95° |
| 2026-05-05 22:27 | 49.49025 | -99.87116 | 35209 ft | 480 kts | 95° |
| 2026-05-05 22:27 | 49.48291 | -99.76950 | 35188 ft | 481 kts | 95° |
| 2026-05-05 22:28 | 49.47547 | -99.66695 | 35187 ft | 481 kts | 95° |
| 2026-05-05 22:28 | 49.46797 | -99.56471 | 35186 ft | 481 kts | 95° |
| 2026-05-05 22:29 | 49.46042 | -99.46321 | 35182 ft | 481 kts | 95° |
| 2026-05-05 22:29 | 49.45274 | -99.36108 | 35188 ft | 481 kts | 95° |
| 2026-05-05 22:30 | 49.44496 | -99.25879 | 35181 ft | 481 kts | 95° |
| 2026-05-05 22:30 | 49.43709 | -99.15662 | 35183 ft | 481 kts | 95° |
| 2026-05-05 22:31 | 49.42918 | -99.05515 | 35177 ft | 481 kts | 95° |
| 2026-05-05 22:31 | 49.42112 | -98.95292 | 35172 ft | 481 kts | 95° |
| 2026-05-05 22:32 | 49.41299 | -98.85089 | 35171 ft | 481 kts | 95° |
| 2026-05-05 22:32 | 49.40475 | -98.74877 | 35168 ft | 482 kts | 96° |
| 2026-05-05 22:33 | 49.39645 | -98.64696 | 35175 ft | 482 kts | 96° |
| 2026-05-05 22:33 | 49.38808 | -98.54545 | 35172 ft | 482 kts | 96° |
| 2026-05-05 22:34 | 49.37956 | -98.44323 | 35166 ft | 482 kts | 96° |
| 2026-05-05 22:34 | 49.37096 | -98.34111 | 35162 ft | 482 kts | 96° |
| 2026-05-05 22:35 | 49.36230 | -98.23948 | 35162 ft | 482 kts | 96° |
| 2026-05-05 22:35 | 49.35352 | -98.13750 | 35164 ft | 482 kts | 96° |
| 2026-05-05 22:36 | 49.34464 | -98.03540 | 35160 ft | 482 kts | 96° |
| 2026-05-05 22:36 | 49.33566 | -97.93322 | 35159 ft | 484 kts | 96° |
| 2026-05-05 22:37 | 49.32664 | -97.83165 | 35153 ft | 483 kts | 96° |
| 2026-05-05 22:37 | 49.31748 | -97.72952 | 35157 ft | 484 kts | 96° |
| 2026-05-05 22:38 | 49.30820 | -97.62723 | 35151 ft | 483 kts | 96° |
| 2026-05-05 22:38 | 49.29889 | -97.52562 | 35162 ft | 484 kts | 97° |
| 2026-05-05 22:39 | 49.28943 | -97.42326 | 35147 ft | 485 kts | 97° |
| 2026-05-05 22:39 | 49.27986 | -97.32079 | 35144 ft | 485 kts | 97° |
| 2026-05-05 22:40 | 49.27023 | -97.21876 | 35146 ft | 486 kts | 97° |
| 2026-05-05 22:40 | 49.26048 | -97.11624 | 35144 ft | 486 kts | 97° |
| 2026-05-05 22:41 | 49.25067 | -97.01429 | 35139 ft | 485 kts | 97° |
| 2026-05-05 22:41 | 49.24072 | -96.91178 | 35139 ft | 486 kts | 97° |
| 2026-05-05 22:42 | 49.23069 | -96.80945 | 35135 ft | 485 kts | 97° |
| 2026-05-05 22:42 | 49.22064 | -96.70789 | 35133 ft | 486 kts | 97° |
| 2026-05-05 22:43 | 49.21042 | -96.60552 | 35135 ft | 486 kts | 98° |
| 2026-05-05 22:43 | 49.20019 | -96.50392 | 35125 ft | 485 kts | 98° |
| 2026-05-05 22:44 | 49.18980 | -96.40170 | 35124 ft | 486 kts | 98° |
| 2026-05-05 22:44 | 49.17932 | -96.29964 | 35116 ft | 485 kts | 98° |
| 2026-05-05 22:45 | 49.16873 | -96.19737 | 35119 ft | 486 kts | 98° |
| 2026-05-05 22:45 | 49.15813 | -96.09582 | 35113 ft | 486 kts | 98° |
| 2026-05-05 22:46 | 49.14736 | -95.99369 | 35092 ft | 486 kts | 98° |
| 2026-05-05 22:46 | 49.13655 | -95.89200 | 35102 ft | 488 kts | 99° |
| 2026-05-05 22:47 | 49.12555 | -95.78940 | 35091 ft | 488 kts | 99° |
| 2026-05-05 22:47 | 49.11455 | -95.68772 | 35094 ft | 488 kts | 99° |
| 2026-05-05 22:48 | 49.10527 | -95.60262 | 35083 ft | 488 kts | 99° |
| 2026-05-05 22:48 | 49.09403 | -95.50032 | 35078 ft | 488 kts | 99° |
| 2026-05-05 22:49 | 49.08276 | -95.39860 | 35074 ft | 488 kts | 99° |
| 2026-05-05 22:49 | 49.07137 | -95.29660 | 35074 ft | 488 kts | 99° |
| 2026-05-05 22:50 | 49.05986 | -95.19447 | 35075 ft | 488 kts | 99° |
| 2026-05-05 22:50 | 49.04825 | -95.09227 | 35074 ft | 488 kts | 99° |
| 2026-05-05 22:51 | 49.03655 | -94.99014 | 35075 ft | 488 kts | 99° |
| 2026-05-05 22:51 | 49.02481 | -94.88850 | 35078 ft | 488 kts | 99° |
| 2026-05-05 22:52 | 49.01301 | -94.78710 | 35079 ft | 489 kts | 100° |
| 2026-05-05 22:52 | 49.00103 | -94.68501 | 35067 ft | 489 kts | 100° |
| 2026-05-05 22:53 | 48.98895 | -94.58287 | 35059 ft | 489 kts | 100° |
| 2026-05-05 22:53 | 48.97683 | -94.48119 | 35066 ft | 492 kts | 100° |
| 2026-05-05 22:54 | 48.96452 | -94.37876 | 35070 ft | 491 kts | 101° |
| 2026-05-05 22:54 | 48.95211 | -94.27626 | 35064 ft | 491 kts | 101° |
| 2026-05-05 22:55 | 48.93963 | -94.17403 | 35071 ft | 491 kts | 101° |
| 2026-05-05 22:55 | 48.92711 | -94.07227 | 35071 ft | 491 kts | 101° |
| 2026-05-05 22:56 | 48.91445 | -93.97010 | 35065 ft | 491 kts | 101° |
| 2026-05-05 22:56 | 48.90170 | -93.86799 | 35067 ft | 491 kts | 101° |
| 2026-05-05 22:57 | 48.88890 | -93.76626 | 35057 ft | 491 kts | 101° |
| 2026-05-05 22:57 | 48.87594 | -93.66407 | 35054 ft | 491 kts | 101° |
| 2026-05-05 22:58 | 48.86298 | -93.56260 | 35047 ft | 491 kts | 101° |
| 2026-05-05 22:58 | 48.84984 | -93.46051 | 35040 ft | 492 kts | 101° |
| 2026-05-05 22:59 | 48.83668 | -93.35897 | 35039 ft | 492 kts | 101° |
| 2026-05-05 22:59 | 48.82337 | -93.25699 | 35036 ft | 492 kts | 102° |
| 2026-05-05 23:00 | 48.80327 | -93.10444 | 35035 ft | 492 kts | 102° |
| 2026-05-05 23:00 | 48.78967 | -93.00220 | 35041 ft | 493 kts | 102° |
| 2026-05-05 23:01 | 48.77611 | -92.90088 | 35037 ft | 493 kts | 102° |
| 2026-05-05 23:01 | 48.76234 | -92.79880 | 35036 ft | 493 kts | 102° |
| 2026-05-05 23:02 | 48.74859 | -92.69755 | 35034 ft | 493 kts | 102° |
| 2026-05-05 23:02 | 48.73467 | -92.59574 | 35036 ft | 493 kts | 102° |
| 2026-05-05 23:03 | 48.72066 | -92.49400 | 35027 ft | 493 kts | 102° |
| 2026-05-05 23:03 | 48.70658 | -92.39245 | 35026 ft | 493 kts | 102° |
| 2026-05-05 23:04 | 48.69238 | -92.29075 | 35027 ft | 493 kts | 102° |
| 2026-05-05 23:04 | 48.67818 | -92.18973 | 35019 ft | 493 kts | 102° |
| 2026-05-05 23:05 | 48.66380 | -92.08817 | 35022 ft | 493 kts | 103° |
| 2026-05-05 23:05 | 48.64930 | -91.98646 | 35016 ft | 494 kts | 103° |
| 2026-05-05 23:06 | 48.63475 | -91.88505 | 34999 ft | 494 kts | 103° |
| 2026-05-05 23:06 | 48.62012 | -91.78370 | 35018 ft | 496 kts | 103° |
| 2026-05-05 23:07 | 48.60528 | -91.68163 | 35004 ft | 497 kts | 103° |
| 2026-05-05 23:07 | 48.59044 | -91.58029 | 35008 ft | 497 kts | 103° |
| 2026-05-05 23:08 | 48.57540 | -91.47820 | 35002 ft | 497 kts | 103° |
| 2026-05-05 23:08 | 48.56027 | -91.37615 | 35004 ft | 497 kts | 103° |
| 2026-05-05 23:09 | 48.54505 | -91.27418 | 35008 ft | 497 kts | 103° |
| 2026-05-05 23:09 | 48.52983 | -91.17284 | 34998 ft | 497 kts | 103° |
| 2026-05-05 23:10 | 48.51443 | -91.07102 | 34997 ft | 497 kts | 104° |
| 2026-05-05 23:10 | 48.49903 | -90.96981 | 34993 ft | 497 kts | 104° |
| 2026-05-05 23:11 | 48.48345 | -90.86811 | 34991 ft | 497 kts | 104° |
| 2026-05-05 23:11 | 48.46776 | -90.76627 | 34989 ft | 499 kts | 104° |
| 2026-05-05 23:12 | 48.45202 | -90.66482 | 34983 ft | 499 kts | 104° |
| 2026-05-05 23:12 | 48.43610 | -90.56286 | 34970 ft | 499 kts | 104° |
| 2026-05-05 23:13 | 48.42018 | -90.46142 | 34985 ft | 501 kts | 104° |
| 2026-05-05 23:13 | 48.40405 | -90.35921 | 34979 ft | 502 kts | 104° |
| 2026-05-05 23:14 | 48.38782 | -90.25687 | 34976 ft | 502 kts | 104° |
| 2026-05-05 23:14 | 48.37161 | -90.15532 | 34972 ft | 502 kts | 104° |
| 2026-05-05 23:15 | 48.35518 | -90.05295 | 34974 ft | 502 kts | 104° |
| 2026-05-05 23:15 | 48.33872 | -89.95099 | 34967 ft | 502 kts | 105° |
| 2026-05-05 23:16 | 48.32214 | -89.84891 | 34965 ft | 503 kts | 105° |
| 2026-05-05 23:16 | 48.30555 | -89.74735 | 34961 ft | 503 kts | 105° |
| 2026-05-05 23:17 | 48.28887 | -89.64580 | 34955 ft | 502 kts | 105° |
| 2026-05-05 23:17 | 48.27203 | -89.54390 | 34948 ft | 502 kts | 105° |
| 2026-05-05 23:18 | 48.25483 | -89.44227 | 34938 ft | 502 kts | 110° |
| 2026-05-05 23:18 | 48.22782 | -89.34608 | 34942 ft | 501 kts | 115° |
| 2026-05-05 23:19 | 48.20042 | -89.24996 | 34941 ft | 503 kts | 115° |
| 2026-05-05 23:19 | 48.17293 | -89.15390 | 34939 ft | 503 kts | 115° |
| 2026-05-05 23:20 | 48.14522 | -89.05745 | 34940 ft | 504 kts | 115° |
| 2026-05-05 23:20 | 48.11743 | -88.96114 | 34940 ft | 504 kts | 115° |
| 2026-05-05 23:21 | 48.08972 | -88.86547 | 34939 ft | 504 kts | 115° |
| 2026-05-05 23:21 | 48.06173 | -88.76921 | 34938 ft | 504 kts | 116° |
| 2026-05-05 23:22 | 48.03369 | -88.67318 | 34944 ft | 503 kts | 116° |
| 2026-05-05 23:22 | 48.00575 | -88.57786 | 34936 ft | 503 kts | 116° |
| 2026-05-05 23:23 | 47.97748 | -88.48181 | 34937 ft | 506 kts | 116° |
| 2026-05-05 23:23 | 47.94909 | -88.38568 | 34941 ft | 506 kts | 116° |
| 2026-05-05 23:24 | 47.92072 | -88.29001 | 34939 ft | 506 kts | 116° |
| 2026-05-05 23:24 | 47.89224 | -88.19437 | 34939 ft | 507 kts | 116° |
| 2026-05-05 23:25 | 47.86347 | -88.09811 | 34945 ft | 507 kts | 116° |
| 2026-05-05 23:25 | 47.83470 | -88.00222 | 34945 ft | 507 kts | 116° |
| 2026-05-05 23:26 | 47.80590 | -87.90658 | 34951 ft | 507 kts | 117° |
| 2026-05-05 23:26 | 47.77715 | -87.81152 | 34947 ft | 507 kts | 117° |
| 2026-05-05 23:27 | 47.74798 | -87.71544 | 34952 ft | 510 kts | 117° |
| 2026-05-05 23:27 | 47.71886 | -87.61987 | 34950 ft | 509 kts | 117° |
| 2026-05-05 23:28 | 47.68952 | -87.52394 | 34956 ft | 509 kts | 117° |
| 2026-05-05 23:28 | 47.66008 | -87.42807 | 34954 ft | 510 kts | 117° |
| 2026-05-05 23:29 | 47.63064 | -87.33258 | 34951 ft | 510 kts | 117° |
| 2026-05-05 23:29 | 47.60118 | -87.23736 | 34959 ft | 510 kts | 117° |
| 2026-05-05 23:30 | 47.57649 | -87.15783 | 34960 ft | 510 kts | 117° |
| 2026-05-05 23:30 | 47.54180 | -87.04656 | 34935 ft | 511 kts | 118° |
| 2026-05-05 23:31 | 47.51176 | -86.95057 | 34955 ft | 513 kts | 118° |
| 2026-05-05 23:31 | 47.48171 | -86.85490 | 34959 ft | 513 kts | 118° |
| 2026-05-05 23:32 | 47.45156 | -86.75931 | 34956 ft | 513 kts | 118° |
| 2026-05-05 23:32 | 47.42133 | -86.66381 | 34950 ft | 513 kts | 118° |
| 2026-05-05 23:33 | 47.39113 | -86.56875 | 34963 ft | 513 kts | 118° |
| 2026-05-05 23:33 | 47.36068 | -86.47330 | 34961 ft | 513 kts | 118° |
| 2026-05-05 23:34 | 47.33036 | -86.37857 | 34961 ft | 513 kts | 118° |
| 2026-05-05 23:34 | 47.29973 | -86.28324 | 34964 ft | 516 kts | 119° |
| 2026-05-05 23:35 | 47.26891 | -86.18771 | 34963 ft | 516 kts | 119° |
| 2026-05-05 23:35 | 47.23798 | -86.09216 | 34965 ft | 516 kts | 119° |
| 2026-05-05 23:36 | 47.20718 | -85.99737 | 34973 ft | 516 kts | 120° |
| 2026-05-05 23:36 | 47.17614 | -85.90221 | 34973 ft | 516 kts | 120° |
| 2026-05-05 23:37 | 47.14501 | -85.80712 | 34971 ft | 517 kts | 120° |
| 2026-05-05 23:37 | 47.11901 | -85.72794 | 34983 ft | 517 kts | 120° |
| 2026-05-05 23:38 | 47.08776 | -85.63316 | 34958 ft | 517 kts | 120° |
| 2026-05-05 23:38 | 47.05622 | -85.53779 | 34980 ft | 519 kts | 120° |
| 2026-05-05 23:39 | 47.02458 | -85.44250 | 34983 ft | 519 kts | 120° |
| 2026-05-05 23:39 | 46.99305 | -85.34788 | 34984 ft | 519 kts | 120° |
| 2026-05-05 23:40 | 46.96124 | -85.25279 | 34981 ft | 519 kts | 121° |
| 2026-05-05 23:40 | 46.92933 | -85.15775 | 34981 ft | 519 kts | 121° |
| 2026-05-05 23:41 | 46.89754 | -85.06337 | 34979 ft | 519 kts | 121° |
| 2026-05-05 23:41 | 46.86544 | -84.96845 | 34987 ft | 521 kts | 121° |
| 2026-05-05 23:42 | 46.83339 | -84.87402 | 34981 ft | 523 kts | 121° |
| 2026-05-05 23:42 | 46.80089 | -84.77860 | 34979 ft | 524 kts | 121° |
| 2026-05-05 23:43 | 46.76835 | -84.68340 | 34970 ft | 524 kts | 121° |
| 2026-05-05 23:43 | 46.73567 | -84.58816 | 34969 ft | 525 kts | 122° |
| 2026-05-05 23:44 | 46.70308 | -84.49349 | 34964 ft | 525 kts | 122° |
| 2026-05-05 23:44 | 46.67022 | -84.39841 | 34969 ft | 525 kts | 122° |
| 2026-05-05 23:45 | 46.63727 | -84.30343 | 34938 ft | 525 kts | 122° |
| 2026-05-05 23:45 | 46.60442 | -84.20904 | 34955 ft | 525 kts | 122° |
| 2026-05-05 23:46 | 46.57138 | -84.11437 | 34952 ft | 525 kts | 122° |
| 2026-05-05 23:46 | 46.53822 | -84.01970 | 34954 ft | 525 kts | 122° |
| 2026-05-05 23:47 | 46.50518 | -83.92567 | 34947 ft | 525 kts | 122° |
| 2026-05-05 23:47 | 46.47187 | -83.83119 | 34953 ft | 524 kts | 122° |
| 2026-05-05 23:48 | 46.43853 | -83.73697 | 34955 ft | 525 kts | 123° |
| 2026-05-05 23:48 | 46.40535 | -83.64267 | 34947 ft | 526 kts | 120° |
| 2026-05-05 23:49 | 46.38790 | -83.59637 | 34897 ft | 516 kts | 133° |
| 2026-05-05 23:49 | 46.36565 | -83.55691 | 34856 ft | 512 kts | 136° |
| 2026-05-05 23:49 | 46.32280 | -83.47319 | 34871 ft | 519 kts | 133° |
| 2026-05-05 23:50 | 46.28105 | -83.38882 | 34845 ft | 518 kts | 133° |
| 2026-05-05 23:50 | 46.23902 | -83.30360 | 34849 ft | 518 kts | 133° |
| 2026-05-05 23:51 | 46.19713 | -83.21888 | 34846 ft | 518 kts | 133° |
| 2026-05-05 23:51 | 46.15536 | -83.13467 | 34817 ft | 520 kts | 134° |
| 2026-05-05 23:52 | 46.11296 | -83.04944 | 34842 ft | 522 kts | 134° |
| 2026-05-05 23:52 | 46.07051 | -82.96439 | 34836 ft | 522 kts | 134° |
| 2026-05-05 23:53 | 46.02823 | -82.87994 | 34829 ft | 522 kts | 134° |
| 2026-05-05 23:53 | 45.98571 | -82.79523 | 34821 ft | 522 kts | 134° |
| 2026-05-05 23:54 | 45.94336 | -82.71114 | 34814 ft | 521 kts | 134° |
| 2026-05-05 23:54 | 45.90063 | -82.62653 | 34806 ft | 524 kts | 135° |
| 2026-05-05 23:55 | 45.85762 | -82.54162 | 34814 ft | 524 kts | 135° |
| 2026-05-05 23:55 | 45.81489 | -82.45756 | 34842 ft | 524 kts | 135° |
| 2026-05-05 23:56 | 45.77189 | -82.37318 | 34843 ft | 524 kts | 135° |
| 2026-05-05 23:56 | 45.72875 | -82.28877 | 34840 ft | 524 kts | 135° |
| 2026-05-05 23:57 | 45.68585 | -82.20512 | 34810 ft | 524 kts | 136° |
| 2026-05-05 23:57 | 45.64251 | -82.12081 | 34841 ft | 525 kts | 136° |
| 2026-05-05 23:58 | 45.59636 | -82.04189 | 34850 ft | 502 kts | 149° |
| 2026-05-05 23:58 | 45.54535 | -81.97348 | 34836 ft | 506 kts | 148° |
| 2026-05-05 23:59 | 45.49386 | -81.90448 | 34852 ft | 507 kts | 148° |
| 2026-05-05 23:59 | 45.44240 | -81.83575 | 34851 ft | 507 kts | 148° |
| 2026-05-06 00:00 | 45.39114 | -81.76748 | 34856 ft | 507 kts | 148° |
| 2026-05-06 00:00 | 45.33947 | -81.69884 | 34860 ft | 507 kts | 148° |
| 2026-05-06 00:01 | 45.28786 | -81.63044 | 34856 ft | 507 kts | 148° |
| 2026-05-06 00:01 | 45.23656 | -81.56265 | 34834 ft | 506 kts | 148° |
| 2026-05-06 00:02 | 45.18478 | -81.49442 | 34847 ft | 506 kts | 148° |
| 2026-05-06 00:02 | 45.13368 | -81.42723 | 34858 ft | 502 kts | 148° |
| 2026-05-06 00:03 | 45.08246 | -81.36007 | 34858 ft | 502 kts | 148° |
| 2026-05-06 00:03 | 45.03118 | -81.29299 | 34820 ft | 501 kts | 148° |
| 2026-05-06 00:04 | 44.97993 | -81.22614 | 34849 ft | 500 kts | 148° |
| 2026-05-06 00:04 | 44.92912 | -81.16003 | 34849 ft | 498 kts | 148° |
| 2026-05-06 00:05 | 44.85272 | -81.06092 | 34932 ft | 496 kts | 148° |
| 2026-05-06 00:06 | 44.80212 | -80.99549 | 34935 ft | 494 kts | 148° |
| 2026-05-06 00:06 | 44.75139 | -80.93005 | 34616 ft | 494 kts | 148° |
| 2026-05-06 00:06 | 44.72599 | -80.89736 | 33844 ft | 496 kts | 148° |
| 2026-05-06 00:07 | 44.70049 | -80.86456 | 32903 ft | 496 kts | 149° |
| 2026-05-06 00:07 | 44.67499 | -80.83183 | 32036 ft | 496 kts | 150° |
| 2026-05-06 00:07 | 44.64976 | -80.79944 | 31191 ft | 497 kts | 150° |
| 2026-05-06 00:07 | 44.62418 | -80.76666 | 30369 ft | 497 kts | 150° |
| 2026-05-06 00:08 | 44.59864 | -80.73396 | 29448 ft | 493 kts | 149° |
| 2026-05-06 00:08 | 44.57349 | -80.70184 | 28535 ft | 488 kts | 149° |
| 2026-05-06 00:08 | 44.54819 | -80.66957 | 27625 ft | 491 kts | 149° |
| 2026-05-06 00:08 | 44.52282 | -80.63722 | 26745 ft | 492 kts | 148° |
| 2026-05-06 00:09 | 44.49772 | -80.60526 | 25915 ft | 494 kts | 148° |
| 2026-05-06 00:09 | 44.47214 | -80.57274 | 25084 ft | 497 kts | 148° |
| 2026-05-06 00:09 | 44.44648 | -80.54015 | 24269 ft | 497 kts | 148° |
| 2026-05-06 00:09 | 44.42089 | -80.50767 | 23471 ft | 493 kts | 147° |
| 2026-05-06 00:10 | 44.39560 | -80.47565 | 22576 ft | 487 kts | 147° |
| 2026-05-06 00:10 | 44.37056 | -80.44397 | 21707 ft | 480 kts | 147° |
| 2026-05-06 00:10 | 44.34617 | -80.41315 | 20872 ft | 473 kts | 147° |
| 2026-05-06 00:10 | 44.32190 | -80.38252 | 20047 ft | 466 kts | 147° |
| 2026-05-06 00:11 | 44.29792 | -80.35228 | 19255 ft | 460 kts | 148° |
| 2026-05-06 00:11 | 44.27429 | -80.32251 | 18482 ft | 453 kts | 148° |
| 2026-05-06 00:11 | 44.25099 | -80.29321 | 17663 ft | 447 kts | 148° |
| 2026-05-06 00:11 | 44.22804 | -80.26436 | 16811 ft | 442 kts | 148° |
| 2026-05-06 00:12 | 44.20564 | -80.23623 | 15991 ft | 436 kts | 148° |
| 2026-05-06 00:12 | 44.18292 | -80.20770 | 15128 ft | 432 kts | 147° |
| 2026-05-06 00:12 | 44.16096 | -80.18014 | 14356 ft | 428 kts | 147° |
| 2026-05-06 00:12 | 44.13901 | -80.15260 | 13767 ft | 415 kts | 147° |
| 2026-05-06 00:13 | 44.11805 | -80.12630 | 13725 ft | 398 kts | 147° |
| 2026-05-06 00:13 | 44.09777 | -80.10095 | 13580 ft | 386 kts | 148° |
| 2026-05-06 00:13 | 44.07811 | -80.07631 | 13481 ft | 374 kts | 148° |
| 2026-05-06 00:13 | 44.05912 | -80.05240 | 13048 ft | 362 kts | 145° |
| 2026-05-06 00:14 | 44.04066 | -80.02944 | 13257 ft | 351 kts | 149° |
| 2026-05-06 00:14 | 44.02320 | -80.00598 | 13069 ft | 354 kts | 137° |
| 2026-05-06 00:14 | 44.01186 | -79.97503 | 12875 ft | 377 kts | 118° |
| 2026-05-06 00:14 | 44.00157 | -79.94095 | 12698 ft | 390 kts | 122° |
| 2026-05-06 00:15 | 43.99029 | -79.90583 | 12482 ft | 407 kts | 121° |
| 2026-05-06 00:15 | 43.97845 | -79.86909 | 12248 ft | 423 kts | 121° |
| 2026-05-06 00:15 | 43.96622 | -79.83113 | 12004 ft | 432 kts | 120° |
| 2026-05-06 00:15 | 43.95406 | -79.79332 | 11770 ft | 423 kts | 120° |
| 2026-05-06 00:16 | 43.94222 | -79.75653 | 11568 ft | 412 kts | 120° |
| 2026-05-06 00:16 | 43.93077 | -79.72109 | 11367 ft | 403 kts | 121° |
| 2026-05-06 00:16 | 43.91942 | -79.68597 | 10894 ft | 393 kts | 121° |
| 2026-05-06 00:16 | 43.90828 | -79.65158 | 10278 ft | 386 kts | 121° |
| 2026-05-06 00:17 | 43.89734 | -79.61786 | 9631 ft | 380 kts | 122° |
| 2026-05-06 00:17 | 43.88804 | -79.58348 | 8803 ft | 385 kts | 107° |
| 2026-05-06 00:17 | 43.88685 | -79.54657 | 7870 ft | 394 kts | 82° |
| 2026-05-06 00:17 | 43.89572 | -79.51096 | 7062 ft | 389 kts | 57° |
| 2026-05-06 00:18 | 43.91250 | -79.48220 | 6370 ft | 375 kts | 41° |
| 2026-05-06 00:18 | 43.93049 | -79.45664 | 5673 ft | 367 kts | 43° |
| 2026-05-06 00:18 | 43.94797 | -79.43141 | 5000 ft | 358 kts | 43° |
| 2026-05-06 00:18 | 43.96379 | -79.40598 | 4418 ft | 348 kts | 59° |
| 2026-05-06 00:19 | 43.97045 | -79.37523 | 4373 ft | 322 kts | 88° |
| 2026-05-06 00:19 | 43.96613 | -79.34628 | 4319 ft | 296 kts | 120° |
| 2026-05-06 00:19 | 43.95376 | -79.32523 | 4286 ft | 270 kts | 139° |
| 2026-05-06 00:19 | 43.93907 | -79.31116 | 4169 ft | 246 kts | 166° |
| 2026-05-06 00:20 | 43.92309 | -79.31062 | 4028 ft | 219 kts | 197° |
| 2026-05-06 00:20 | 43.90909 | -79.31617 | 4088 ft | 203 kts | 200° |
| 2026-05-06 00:20 | 43.89568 | -79.32161 | 4222 ft | 200 kts | 200° |
| 2026-05-06 00:20 | 43.88233 | -79.32695 | 4168 ft | 199 kts | 200° |
| 2026-05-06 00:21 | 43.86942 | -79.33286 | 4068 ft | 196 kts | 209° |
| 2026-05-06 00:21 | 43.85800 | -79.34283 | 4003 ft | 193 kts | 221° |
| 2026-05-06 00:21 | 43.84776 | -79.35487 | 4010 ft | 193 kts | 224° |
| 2026-05-06 00:21 | 43.83790 | -79.36755 | 4020 ft | 193 kts | 226° |
| 2026-05-06 00:22 | 43.82846 | -79.38038 | 4014 ft | 192 kts | 227° |
| 2026-05-06 00:22 | 43.81901 | -79.39365 | 4010 ft | 192 kts | 228° |
| 2026-05-06 00:22 | 43.80973 | -79.40696 | 4009 ft | 192 kts | 228° |
| 2026-05-06 00:22 | 43.80047 | -79.42033 | 4004 ft | 192 kts | 229° |
| 2026-05-06 00:23 | 43.79134 | -79.43358 | 3766 ft | 192 kts | 228° |
| 2026-05-06 00:23 | 43.78211 | -79.44700 | 3540 ft | 192 kts | 228° |
| 2026-05-06 00:23 | 43.77292 | -79.46040 | 3298 ft | 192 kts | 227° |
| 2026-05-06 00:23 | 43.76370 | -79.47387 | 3049 ft | 191 kts | 227° |
| 2026-05-06 00:24 | 43.75452 | -79.48726 | 2818 ft | 194 kts | 227° |
| 2026-05-06 00:24 | 43.74568 | -79.50017 | 2547 ft | 177 kts | 227° |
| 2026-05-06 00:24 | 43.74012 | -79.50827 | 2380 ft | 174 kts | 227° |
| 2026-05-06 00:24 | 43.72917 | -79.52423 | 2087 ft | 170 kts | 228° |
| 2026-05-06 00:25 | 43.72115 | -79.53593 | 1843 ft | 166 kts | 227° |
| 2026-05-06 00:25 | 43.71347 | -79.54711 | 1627 ft | 155 kts | 228° |
| 2026-05-06 00:25 | 43.70850 | -79.55435 | 1479 ft | 153 kts | 228° |
| 2026-05-06 00:25 | 43.70131 | -79.56482 | 1255 ft | 152 kts | 227° |
| 2026-05-06 00:26 | 43.69401 | -79.57544 | 1052 ft | 152 kts | 229° |
| 2026-05-06 00:26 | 43.68671 | -79.58599 | 813 ft | 152 kts | 229° |
| 2026-05-06 00:26 | 43.67939 | -79.59668 | 639 ft | 154 kts | 229° |
| 2026-05-06 00:26 | 43.67234 | -79.60702 | 562 ft | 128 kts | 225° |
| 2026-05-06 00:27 | 43.66766 | -79.61381 | 566 ft | 62 kts | 226° |
| 2026-05-06 00:27 | 43.66594 | -79.61641 | 564 ft | 25 kts | 238° |
| 2026-05-06 00:27 | 43.66548 | -79.61812 | 562 ft | 13 kts | 257° |
| 2026-05-06 00:27 | 43.66549 | -79.61912 | 568 ft | 10 kts | 298° |
| 2026-05-06 00:28 | 43.66593 | -79.61946 | 568 ft | 7 kts | 5° |
| 2026-05-06 00:28 | 43.66628 | -79.61911 | 567 ft | 0 kts | 49° |
| 2026-05-06 00:28 | 43.66630 | -79.61908 | 565 ft | 0 kts | 49° |
| 2026-05-06 00:29 | 43.66637 | -79.61897 | 567 ft | 6 kts | 48° |
| 2026-05-06 00:29 | 43.66676 | -79.61839 | 563 ft | 9 kts | 46° |
| 2026-05-06 00:30 | 43.66727 | -79.61765 | 566 ft | 11 kts | 46° |
| 2026-05-06 00:30 | 43.66783 | -79.61684 | 566 ft | 12 kts | 46° |